sensor_id;sensor_type;location;lat;lon;timestamp;temperature;humidity
52739;DHT22;52466;40.122;18.318;2022-07-19T00:01:45;26.00;69.50
52739;DHT22;52466;40.122;18.318;2022-07-19T00:04:53;26.00;69.70
52739;DHT22;52466;40.122;18.318;2022-07-19T00:08:01;26.00;70.00
52739;DHT22;52466;40.122;18.318;2022-07-19T00:11:09;26.00;70.10
52739;DHT22;52466;40.122;18.318;2022-07-19T00:14:17;26.00;70.30
52739;DHT22;52466;40.122;18.318;2022-07-19T00:17:25;26.00;70.50
52739;DHT22;52466;40.122;18.318;2022-07-19T00:20:32;26.00;70.70
52739;DHT22;52466;40.122;18.318;2022-07-19T00:23:40;25.90;70.90
52739;DHT22;52466;40.122;18.318;2022-07-19T00:26:48;25.90;71.00
52739;DHT22;52466;40.122;18.318;2022-07-19T00:29:56;25.90;71.20
52739;DHT22;52466;40.122;18.318;2022-07-19T00:33:03;25.80;71.40
52739;DHT22;52466;40.122;18.318;2022-07-19T00:36:16;25.80;71.50
52739;DHT22;52466;40.122;18.318;2022-07-19T00:39:24;25.70;71.60
52739;DHT22;52466;40.122;18.318;2022-07-19T00:42:31;25.60;71.60
52739;DHT22;52466;40.122;18.318;2022-07-19T00:45:39;25.60;71.60
52739;DHT22;52466;40.122;18.318;2022-07-19T00:48:48;25.60;71.50
52739;DHT22;52466;40.122;18.318;2022-07-19T00:51:57;25.60;71.40
52739;DHT22;52466;40.122;18.318;2022-07-19T00:55:09;25.60;71.30
52739;DHT22;52466;40.122;18.318;2022-07-19T00:58:17;25.50;71.20
52739;DHT22;52466;40.122;18.318;2022-07-19T01:01:25;25.60;71.00
52739;DHT22;52466;40.122;18.318;2022-07-19T01:04:33;25.60;70.90
52739;DHT22;52466;40.122;18.318;2022-07-19T01:07:41;25.50;70.80
52739;DHT22;52466;40.122;18.318;2022-07-19T01:10:49;25.50;70.70
52739;DHT22;52466;40.122;18.318;2022-07-19T01:13:57;25.50;70.60
52739;DHT22;52466;40.122;18.318;2022-07-19T01:17:05;25.50;70.50
52739;DHT22;52466;40.122;18.318;2022-07-19T01:20:13;25.50;70.40
52739;DHT22;52466;40.122;18.318;2022-07-19T01:23:21;25.50;70.30
52739;DHT22;52466;40.122;18.318;2022-07-19T01:26:29;25.50;70.20
52739;DHT22;52466;40.122;18.318;2022-07-19T01:29:37;25.40;70.10
52739;DHT22;52466;40.122;18.318;2022-07-19T01:32:45;25.40;70.00
52739;DHT22;52466;40.122;18.318;2022-07-19T01:35:53;25.40;70.10
52739;DHT22;52466;40.122;18.318;2022-07-19T01:39:01;25.30;70.10
52739;DHT22;52466;40.122;18.318;2022-07-19T01:42:08;25.30;70.20
52739;DHT22;52466;40.122;18.318;2022-07-19T01:45:16;25.30;70.20
52739;DHT22;52466;40.122;18.318;2022-07-19T01:48:25;25.30;70.10
52739;DHT22;52466;40.122;18.318;2022-07-19T01:51:33;25.30;70.20
52739;DHT22;52466;40.122;18.318;2022-07-19T01:54:41;25.20;70.20
52739;DHT22;52466;40.122;18.318;2022-07-19T01:57:49;25.20;70.20
52739;DHT22;52466;40.122;18.318;2022-07-19T02:01:04;25.20;70.30
52739;DHT22;52466;40.122;18.318;2022-07-19T02:04:22;25.10;70.40
52739;DHT22;52466;40.122;18.318;2022-07-19T02:07:29;25.10;70.50
52739;DHT22;52466;40.122;18.318;2022-07-19T02:10:37;25.10;70.50
52739;DHT22;52466;40.122;18.318;2022-07-19T02:13:45;25.00;70.60
52739;DHT22;52466;40.122;18.318;2022-07-19T02:16:52;25.00;70.60
52739;DHT22;52466;40.122;18.318;2022-07-19T02:20:00;25.00;70.60
52739;DHT22;52466;40.122;18.318;2022-07-19T02:23:08;25.00;70.60
52739;DHT22;52466;40.122;18.318;2022-07-19T02:26:16;25.00;70.70
52739;DHT22;52466;40.122;18.318;2022-07-19T02:29:24;25.00;70.70
52739;DHT22;52466;40.122;18.318;2022-07-19T02:32:32;24.90;70.80
52739;DHT22;52466;40.122;18.318;2022-07-19T02:35:39;24.90;70.80
52739;DHT22;52466;40.122;18.318;2022-07-19T02:38:47;24.90;70.80
52739;DHT22;52466;40.122;18.318;2022-07-19T02:41:55;24.80;71.00
52739;DHT22;52466;40.122;18.318;2022-07-19T02:45:03;24.80;71.00
52739;DHT22;52466;40.122;18.318;2022-07-19T02:48:11;24.80;71.00
52739;DHT22;52466;40.122;18.318;2022-07-19T02:51:19;24.80;71.10
52739;DHT22;52466;40.122;18.318;2022-07-19T02:54:26;24.80;71.10
52739;DHT22;52466;40.122;18.318;2022-07-19T02:57:34;24.80;71.20
52739;DHT22;52466;40.122;18.318;2022-07-19T03:00:42;24.80;71.20
52739;DHT22;52466;40.122;18.318;2022-07-19T03:03:50;24.80;71.20
52739;DHT22;52466;40.122;18.318;2022-07-19T03:06:58;24.80;71.20
52739;DHT22;52466;40.122;18.318;2022-07-19T03:10:06;24.80;71.10
52739;DHT22;52466;40.122;18.318;2022-07-19T03:13:14;24.90;71.10
52739;DHT22;52466;40.122;18.318;2022-07-19T03:16:21;24.80;71.10
52739;DHT22;52466;40.122;18.318;2022-07-19T03:19:29;24.80;71.10
52739;DHT22;52466;40.122;18.318;2022-07-19T03:22:37;24.80;71.20
52739;DHT22;52466;40.122;18.318;2022-07-19T03:25:45;24.80;71.10
52739;DHT22;52466;40.122;18.318;2022-07-19T03:28:52;24.90;71.00
52739;DHT22;52466;40.122;18.318;2022-07-19T03:32:00;24.90;70.80
52739;DHT22;52466;40.122;18.318;2022-07-19T03:35:08;24.90;70.70
52739;DHT22;52466;40.122;18.318;2022-07-19T03:38:16;24.90;70.70
52739;DHT22;52466;40.122;18.318;2022-07-19T03:41:24;24.80;70.90
52739;DHT22;52466;40.122;18.318;2022-07-19T03:44:32;24.80;71.00
52739;DHT22;52466;40.122;18.318;2022-07-19T03:47:39;24.80;70.80
52739;DHT22;52466;40.122;18.318;2022-07-19T03:50:47;24.90;70.60
52739;DHT22;52466;40.122;18.318;2022-07-19T03:53:55;24.90;70.40
52739;DHT22;52466;40.122;18.318;2022-07-19T03:57:02;25.00;70.40
52739;DHT22;52466;40.122;18.318;2022-07-19T04:00:11;25.00;70.20
52739;DHT22;52466;40.122;18.318;2022-07-19T04:03:20;25.00;70.20
52739;DHT22;52466;40.122;18.318;2022-07-19T04:06:28;25.00;70.20
52739;DHT22;52466;40.122;18.318;2022-07-19T04:09:35;25.10;70.10
52739;DHT22;52466;40.122;18.318;2022-07-19T04:12:43;25.20;69.90
52739;DHT22;52466;40.122;18.318;2022-07-19T04:15:51;25.20;69.80
52739;DHT22;52466;40.122;18.318;2022-07-19T04:18:58;25.30;69.80
52739;DHT22;52466;40.122;18.318;2022-07-19T04:22:06;25.50;69.60
52739;DHT22;52466;40.122;18.318;2022-07-19T04:25:14;25.60;69.20
52739;DHT22;52466;40.122;18.318;2022-07-19T04:28:22;25.60;69.20
52739;DHT22;52466;40.122;18.318;2022-07-19T04:31:30;25.60;69.20
52739;DHT22;52466;40.122;18.318;2022-07-19T04:34:38;25.70;69.20
52739;DHT22;52466;40.122;18.318;2022-07-19T04:37:46;25.80;69.00
52739;DHT22;52466;40.122;18.318;2022-07-19T04:40:53;26.00;68.90
52739;DHT22;52466;40.122;18.318;2022-07-19T04:44:01;26.10;68.70
52739;DHT22;52466;40.122;18.318;2022-07-19T04:47:10;26.40;68.20
52739;DHT22;52466;40.122;18.318;2022-07-19T04:50:18;26.70;67.50
52739;DHT22;52466;40.122;18.318;2022-07-19T04:53:26;27.00;66.60
52739;DHT22;52466;40.122;18.318;2022-07-19T04:56:34;27.40;65.70
52739;DHT22;52466;40.122;18.318;2022-07-19T04:59:37;27.60;64.70
52739;DHT22;52466;40.122;18.318;2022-07-19T05:02:44;27.90;64.10
52739;DHT22;52466;40.122;18.318;2022-07-19T05:05:52;28.10;63.20
52739;DHT22;52466;40.122;18.318;2022-07-19T05:08:59;28.40;62.30
52739;DHT22;52466;40.122;18.318;2022-07-19T05:12:08;28.70;61.30
52739;DHT22;52466;40.122;18.318;2022-07-19T05:15:16;29.00;60.70
52739;DHT22;52466;40.122;18.318;2022-07-19T05:18:24;29.30;59.80
52739;DHT22;52466;40.122;18.318;2022-07-19T05:21:32;29.60;59.10
52739;DHT22;52466;40.122;18.318;2022-07-19T05:24:39;30.00;58.30
52739;DHT22;52466;40.122;18.318;2022-07-19T05:27:47;30.50;57.00
52739;DHT22;52466;40.122;18.318;2022-07-19T05:30:55;31.10;54.90
52739;DHT22;52466;40.122;18.318;2022-07-19T05:34:03;31.50;53.70
52739;DHT22;52466;40.122;18.318;2022-07-19T05:37:10;31.90;52.00
52739;DHT22;52466;40.122;18.318;2022-07-19T05:40:18;32.30;50.80
52739;DHT22;52466;40.122;18.318;2022-07-19T05:43:26;33.00;49.20
52739;DHT22;52466;40.122;18.318;2022-07-19T05:46:34;34.10;46.80
52739;DHT22;52466;40.122;18.318;2022-07-19T05:49:44;35.50;44.00
52739;DHT22;52466;40.122;18.318;2022-07-19T05:52:52;36.80;41.10
52739;DHT22;52466;40.122;18.318;2022-07-19T05:56:00;38.30;38.50
52739;DHT22;52466;40.122;18.318;2022-07-19T05:59:07;40.00;36.00
52739;DHT22;52466;40.122;18.318;2022-07-19T06:02:15;41.40;33.40
52739;DHT22;52466;40.122;18.318;2022-07-19T06:05:24;42.40;31.80
52739;DHT22;52466;40.122;18.318;2022-07-19T06:08:31;43.40;30.30
52739;DHT22;52466;40.122;18.318;2022-07-19T06:11:39;43.40;30.00
52739;DHT22;52466;40.122;18.318;2022-07-19T06:14:50;43.50;29.60
52739;DHT22;52466;40.122;18.318;2022-07-19T06:17:58;44.30;29.10
52739;DHT22;52466;40.122;18.318;2022-07-19T06:21:11;44.90;28.00
52739;DHT22;52466;40.122;18.318;2022-07-19T06:24:19;44.50;28.20
52739;DHT22;52466;40.122;18.318;2022-07-19T06:27:27;43.40;29.10
52739;DHT22;52466;40.122;18.318;2022-07-19T06:30:35;41.00;31.80
52739;DHT22;52466;40.122;18.318;2022-07-19T06:33:46;39.00;34.60
52739;DHT22;52466;40.122;18.318;2022-07-19T06:36:54;37.50;37.30
52739;DHT22;52466;40.122;18.318;2022-07-19T06:40:02;36.40;39.30
52739;DHT22;52466;40.122;18.318;2022-07-19T06:43:11;35.50;41.10
52739;DHT22;52466;40.122;18.318;2022-07-19T06:46:18;35.30;41.60
52739;DHT22;52466;40.122;18.318;2022-07-19T06:49:26;35.20;42.00
52739;DHT22;52466;40.122;18.318;2022-07-19T06:52:34;35.20;42.40
52739;DHT22;52466;40.122;18.318;2022-07-19T06:55:42;35.40;42.50
52739;DHT22;52466;40.122;18.318;2022-07-19T06:58:50;35.30;43.10
52739;DHT22;52466;40.122;18.318;2022-07-19T07:01:58;35.40;43.40
52739;DHT22;52466;40.122;18.318;2022-07-19T07:05:07;35.40;43.10
52739;DHT22;52466;40.122;18.318;2022-07-19T07:08:14;35.00;43.60
52739;DHT22;52466;40.122;18.318;2022-07-19T07:11:22;35.10;43.60
52739;DHT22;52466;40.122;18.318;2022-07-19T07:14:30;35.30;42.90
52739;DHT22;52466;40.122;18.318;2022-07-19T07:17:38;35.50;42.40
52739;DHT22;52466;40.122;18.318;2022-07-19T07:20:45;35.70;42.20
52739;DHT22;52466;40.122;18.318;2022-07-19T07:23:53;36.20;41.40
52739;DHT22;52466;40.122;18.318;2022-07-19T07:27:01;36.80;40.70
52739;DHT22;52466;40.122;18.318;2022-07-19T07:30:09;37.10;39.90
52739;DHT22;52466;40.122;18.318;2022-07-19T07:33:17;37.10;39.80
52739;DHT22;52466;40.122;18.318;2022-07-19T07:36:25;37.20;39.10
52739;DHT22;52466;40.122;18.318;2022-07-19T07:39:33;37.00;39.00
52739;DHT22;52466;40.122;18.318;2022-07-19T07:42:40;36.90;38.70
52739;DHT22;52466;40.122;18.318;2022-07-19T07:45:48;36.80;38.80
52739;DHT22;52466;40.122;18.318;2022-07-19T07:48:56;36.50;38.60
52739;DHT22;52466;40.122;18.318;2022-07-19T07:52:05;36.40;38.70
52739;DHT22;52466;40.122;18.318;2022-07-19T07:55:13;36.10;39.20
52739;DHT22;52466;40.122;18.318;2022-07-19T07:58:21;36.40;39.10
52739;DHT22;52466;40.122;18.318;2022-07-19T08:01:29;36.40;38.90
52739;DHT22;52466;40.122;18.318;2022-07-19T08:04:38;36.10;39.20
52739;DHT22;52466;40.122;18.318;2022-07-19T08:07:45;36.00;39.60
52739;DHT22;52466;40.122;18.318;2022-07-19T08:10:54;36.00;39.10
52739;DHT22;52466;40.122;18.318;2022-07-19T08:14:02;35.90;38.60
52739;DHT22;52466;40.122;18.318;2022-07-19T08:17:10;35.50;38.90
52739;DHT22;52466;40.122;18.318;2022-07-19T08:20:17;35.30;39.10
52739;DHT22;52466;40.122;18.318;2022-07-19T08:23:25;35.20;39.50
52739;DHT22;52466;40.122;18.318;2022-07-19T08:26:33;35.30;39.40
52739;DHT22;52466;40.122;18.318;2022-07-19T08:29:41;35.10;37.70
52739;DHT22;52466;40.122;18.318;2022-07-19T08:32:48;35.00;37.80
52739;DHT22;52466;40.122;18.318;2022-07-19T08:35:56;34.90;36.70
52739;DHT22;52466;40.122;18.318;2022-07-19T08:39:04;34.70;36.10
52739;DHT22;52466;40.122;18.318;2022-07-19T08:42:12;34.50;36.20
52739;DHT22;52466;40.122;18.318;2022-07-19T08:45:22;34.30;36.10
52739;DHT22;52466;40.122;18.318;2022-07-19T08:48:37;34.20;36.10
52739;DHT22;52466;40.122;18.318;2022-07-19T08:51:47;34.10;35.90
52739;DHT22;52466;40.122;18.318;2022-07-19T08:54:55;34.00;35.40
52739;DHT22;52466;40.122;18.318;2022-07-19T08:58:06;33.70;35.40
52739;DHT22;52466;40.122;18.318;2022-07-19T09:01:14;33.70;35.00
52739;DHT22;52466;40.122;18.318;2022-07-19T09:04:22;33.60;34.50
52739;DHT22;52466;40.122;18.318;2022-07-19T09:07:32;33.60;34.10
52739;DHT22;52466;40.122;18.318;2022-07-19T09:10:49;33.50;34.10
52739;DHT22;52466;40.122;18.318;2022-07-19T09:14:34;33.50;34.00
52739;DHT22;52466;40.122;18.318;2022-07-19T09:17:42;33.50;33.60
52739;DHT22;52466;40.122;18.318;2022-07-19T09:20:51;33.40;33.70
52739;DHT22;52466;40.122;18.318;2022-07-19T09:24:02;33.40;34.10
52739;DHT22;52466;40.122;18.318;2022-07-19T09:27:15;33.30;34.60
52739;DHT22;52466;40.122;18.318;2022-07-19T09:33:52;33.10;35.20
52739;DHT22;52466;40.122;18.318;2022-07-19T09:40:30;33.00;35.50
52739;DHT22;52466;40.122;18.318;2022-07-19T09:43:59;33.10;35.60
52739;DHT22;52466;40.122;18.318;2022-07-19T09:47:07;33.10;35.30
52739;DHT22;52466;40.122;18.318;2022-07-19T09:50:18;33.00;35.30
52739;DHT22;52466;40.122;18.318;2022-07-19T09:53:25;32.90;35.40
52739;DHT22;52466;40.122;18.318;2022-07-19T09:56:33;32.90;35.50
52739;DHT22;52466;40.122;18.318;2022-07-19T09:59:50;33.00;35.30
52739;DHT22;52466;40.122;18.318;2022-07-19T10:03:00;33.00;34.90
52739;DHT22;52466;40.122;18.318;2022-07-19T10:06:09;33.00;35.00
52739;DHT22;52466;40.122;18.318;2022-07-19T10:09:18;33.00;34.80
52739;DHT22;52466;40.122;18.318;2022-07-19T10:12:27;33.00;34.70
52739;DHT22;52466;40.122;18.318;2022-07-19T10:15:39;33.00;34.60
52739;DHT22;52466;40.122;18.318;2022-07-19T10:19:05;33.00;34.80
52739;DHT22;52466;40.122;18.318;2022-07-19T10:22:32;33.00;34.60
52739;DHT22;52466;40.122;18.318;2022-07-19T10:25:49;33.00;33.70
52739;DHT22;52466;40.122;18.318;2022-07-19T10:29:16;32.90;33.10
52739;DHT22;52466;40.122;18.318;2022-07-19T10:32:29;32.90;33.90
52739;DHT22;52466;40.122;18.318;2022-07-19T10:35:37;32.80;34.00
52739;DHT22;52466;40.122;18.318;2022-07-19T10:42:25;33.00;32.30
52739;DHT22;52466;40.122;18.318;2022-07-19T10:45:33;33.00;32.40
52739;DHT22;52466;40.122;18.318;2022-07-19T10:48:50;33.10;31.90
52739;DHT22;52466;40.122;18.318;2022-07-19T10:55:34;33.10;32.10
52739;DHT22;52466;40.122;18.318;2022-07-19T10:58:52;33.10;32.20
52739;DHT22;52466;40.122;18.318;2022-07-19T11:02:00;33.20;32.50
52739;DHT22;52466;40.122;18.318;2022-07-19T11:11:39;33.20;33.20
52739;DHT22;52466;40.122;18.318;2022-07-19T11:14:55;33.30;33.10
52739;DHT22;52466;40.122;18.318;2022-07-19T11:18:16;33.40;32.80
52739;DHT22;52466;40.122;18.318;2022-07-19T11:21:24;33.50;32.20
52739;DHT22;52466;40.122;18.318;2022-07-19T11:24:32;33.50;31.90
52739;DHT22;52466;40.122;18.318;2022-07-19T11:27:41;33.50;31.70
52739;DHT22;52466;40.122;18.318;2022-07-19T11:30:50;33.40;31.80
52739;DHT22;52466;40.122;18.318;2022-07-19T11:33:58;33.50;32.00
52739;DHT22;52466;40.122;18.318;2022-07-19T11:37:06;33.60;32.10
52739;DHT22;52466;40.122;18.318;2022-07-19T11:40:14;33.60;31.90
52739;DHT22;52466;40.122;18.318;2022-07-19T11:43:22;33.50;31.80
52739;DHT22;52466;40.122;18.318;2022-07-19T11:46:32;33.40;32.00
52739;DHT22;52466;40.122;18.318;2022-07-19T11:49:42;33.40;31.90
52739;DHT22;52466;40.122;18.318;2022-07-19T11:55:59;33.50;31.60
52739;DHT22;52466;40.122;18.318;2022-07-19T11:59:07;33.50;31.80
52739;DHT22;52466;40.122;18.318;2022-07-19T12:02:15;33.50;31.90
52739;DHT22;52466;40.122;18.318;2022-07-19T12:05:26;33.50;31.70
52739;DHT22;52466;40.122;18.318;2022-07-19T12:11:49;33.40;31.60
52739;DHT22;52466;40.122;18.318;2022-07-19T12:15:07;33.20;31.70
52739;DHT22;52466;40.122;18.318;2022-07-19T12:18:17;33.20;32.00
52739;DHT22;52466;40.122;18.318;2022-07-19T12:21:39;33.20;32.20
52739;DHT22;52466;40.122;18.318;2022-07-19T12:24:48;33.20;32.20
52739;DHT22;52466;40.122;18.318;2022-07-19T12:27:59;33.20;32.20
52739;DHT22;52466;40.122;18.318;2022-07-19T12:31:06;33.20;32.40
52739;DHT22;52466;40.122;18.318;2022-07-19T12:34:15;33.50;32.20
52739;DHT22;52466;40.122;18.318;2022-07-19T12:40:36;33.50;31.80
52739;DHT22;52466;40.122;18.318;2022-07-19T12:43:44;33.50;31.60
52739;DHT22;52466;40.122;18.318;2022-07-19T12:46:52;33.40;31.90
52739;DHT22;52466;40.122;18.318;2022-07-19T12:50:00;33.50;32.00
52739;DHT22;52466;40.122;18.318;2022-07-19T12:53:10;33.50;32.00
52739;DHT22;52466;40.122;18.318;2022-07-19T12:56:18;33.50;32.00
52739;DHT22;52466;40.122;18.318;2022-07-19T12:59:26;33.60;31.90
52739;DHT22;52466;40.122;18.318;2022-07-19T13:02:50;33.70;31.80
52739;DHT22;52466;40.122;18.318;2022-07-19T13:05:58;33.70;31.80
52739;DHT22;52466;40.122;18.318;2022-07-19T13:09:09;33.70;31.80
52739;DHT22;52466;40.122;18.318;2022-07-19T13:12:17;33.70;31.80
52739;DHT22;52466;40.122;18.318;2022-07-19T13:15:24;33.70;31.90
52739;DHT22;52466;40.122;18.318;2022-07-19T13:18:33;33.80;31.80
52739;DHT22;52466;40.122;18.318;2022-07-19T13:21:41;33.80;31.80
52739;DHT22;52466;40.122;18.318;2022-07-19T13:24:48;33.70;31.70
52739;DHT22;52466;40.122;18.318;2022-07-19T13:27:56;33.70;31.60
52739;DHT22;52466;40.122;18.318;2022-07-19T13:31:04;33.60;31.60
52739;DHT22;52466;40.122;18.318;2022-07-19T13:34:12;33.50;31.80
52739;DHT22;52466;40.122;18.318;2022-07-19T13:37:20;33.60;31.90
52739;DHT22;52466;40.122;18.318;2022-07-19T13:40:28;33.70;31.90
52739;DHT22;52466;40.122;18.318;2022-07-19T13:43:36;33.80;31.80
52739;DHT22;52466;40.122;18.318;2022-07-19T13:46:43;33.90;31.80
52739;DHT22;52466;40.122;18.318;2022-07-19T13:49:51;33.90;31.70
52739;DHT22;52466;40.122;18.318;2022-07-19T13:52:59;34.00;31.70
52739;DHT22;52466;40.122;18.318;2022-07-19T13:56:08;34.00;31.60
52739;DHT22;52466;40.122;18.318;2022-07-19T13:59:16;33.90;31.70
52739;DHT22;52466;40.122;18.318;2022-07-19T14:02:25;33.90;31.70
52739;DHT22;52466;40.122;18.318;2022-07-19T14:05:32;33.90;31.80
52739;DHT22;52466;40.122;18.318;2022-07-19T14:08:42;34.00;31.80
52739;DHT22;52466;40.122;18.318;2022-07-19T14:11:45;34.10;31.70
52739;DHT22;52466;40.122;18.318;2022-07-19T14:14:53;34.20;31.60
52739;DHT22;52466;40.122;18.318;2022-07-19T14:18:01;34.10;31.30
52739;DHT22;52466;40.122;18.318;2022-07-19T14:21:09;34.00;31.40
52739;DHT22;52466;40.122;18.318;2022-07-19T14:24:16;34.00;31.60
52739;DHT22;52466;40.122;18.318;2022-07-19T14:27:24;34.00;31.60
52739;DHT22;52466;40.122;18.318;2022-07-19T14:30:32;34.00;31.60
52739;DHT22;52466;40.122;18.318;2022-07-19T14:33:40;34.00;31.70
52739;DHT22;52466;40.122;18.318;2022-07-19T14:36:48;33.90;31.90
52739;DHT22;52466;40.122;18.318;2022-07-19T14:39:56;34.00;32.00
52739;DHT22;52466;40.122;18.318;2022-07-19T14:43:03;33.90;32.10
52739;DHT22;52466;40.122;18.318;2022-07-19T14:46:19;34.00;32.20
52739;DHT22;52466;40.122;18.318;2022-07-19T14:49:38;34.00;32.20
52739;DHT22;52466;40.122;18.318;2022-07-19T14:52:46;33.90;32.20
52739;DHT22;52466;40.122;18.318;2022-07-19T14:55:54;33.90;32.30
52739;DHT22;52466;40.122;18.318;2022-07-19T14:59:01;33.80;32.30
52739;DHT22;52466;40.122;18.318;2022-07-19T15:02:09;33.80;32.30
52739;DHT22;52466;40.122;18.318;2022-07-19T15:05:17;33.70;32.30
52739;DHT22;52466;40.122;18.318;2022-07-19T15:08:24;33.70;32.00
52739;DHT22;52466;40.122;18.318;2022-07-19T15:11:32;33.60;32.10
52739;DHT22;52466;40.122;18.318;2022-07-19T15:14:40;33.50;32.30
52739;DHT22;52466;40.122;18.318;2022-07-19T15:17:48;33.50;32.70
52739;DHT22;52466;40.122;18.318;2022-07-19T15:20:55;33.50;32.80
52739;DHT22;52466;40.122;18.318;2022-07-19T15:24:04;33.40;32.80
52739;DHT22;52466;40.122;18.318;2022-07-19T15:27:12;33.50;32.90
52739;DHT22;52466;40.122;18.318;2022-07-19T15:30:19;33.50;33.00
52739;DHT22;52466;40.122;18.318;2022-07-19T15:33:27;33.50;32.60
52739;DHT22;52466;40.122;18.318;2022-07-19T15:36:35;33.40;32.40
52739;DHT22;52466;40.122;18.318;2022-07-19T15:39:43;33.30;32.40
52739;DHT22;52466;40.122;18.318;2022-07-19T15:42:51;33.20;32.60
52739;DHT22;52466;40.122;18.318;2022-07-19T15:45:59;33.20;32.90
52739;DHT22;52466;40.122;18.318;2022-07-19T15:49:07;33.30;33.20
52739;DHT22;52466;40.122;18.318;2022-07-19T15:52:15;33.10;34.30
52739;DHT22;52466;40.122;18.318;2022-07-19T15:55:23;33.00;35.40
52739;DHT22;52466;40.122;18.318;2022-07-19T15:58:32;32.90;36.20
52739;DHT22;52466;40.122;18.318;2022-07-19T16:01:40;32.80;37.00
52739;DHT22;52466;40.122;18.318;2022-07-19T16:04:48;32.70;37.60
52739;DHT22;52466;40.122;18.318;2022-07-19T16:07:55;32.60;38.00
52739;DHT22;52466;40.122;18.318;2022-07-19T16:11:03;32.50;38.30
52739;DHT22;52466;40.122;18.318;2022-07-19T16:14:11;32.50;38.50
52739;DHT22;52466;40.122;18.318;2022-07-19T16:17:18;32.50;38.70
52739;DHT22;52466;40.122;18.318;2022-07-19T16:20:27;32.40;39.20
52739;DHT22;52466;40.122;18.318;2022-07-19T16:23:35;32.30;39.70
52739;DHT22;52466;40.122;18.318;2022-07-19T16:26:42;32.20;40.00
52739;DHT22;52466;40.122;18.318;2022-07-19T16:29:50;32.20;40.10
52739;DHT22;52466;40.122;18.318;2022-07-19T16:32:58;32.10;40.00
52739;DHT22;52466;40.122;18.318;2022-07-19T16:36:06;32.20;40.10
52739;DHT22;52466;40.122;18.318;2022-07-19T16:39:14;32.20;40.50
52739;DHT22;52466;40.122;18.318;2022-07-19T16:42:22;32.10;41.40
52739;DHT22;52466;40.122;18.318;2022-07-19T16:45:25;32.00;42.30
52739;DHT22;52466;40.122;18.318;2022-07-19T16:48:33;32.00;42.80
52739;DHT22;52466;40.122;18.318;2022-07-19T16:51:41;31.90;43.50
52739;DHT22;52466;40.122;18.318;2022-07-19T16:54:48;31.80;44.20
52739;DHT22;52466;40.122;18.318;2022-07-19T16:57:56;31.80;44.60
52739;DHT22;52466;40.122;18.318;2022-07-19T17:01:05;31.70;44.90
52739;DHT22;52466;40.122;18.318;2022-07-19T17:04:14;31.70;45.20
52739;DHT22;52466;40.122;18.318;2022-07-19T17:07:22;31.60;45.50
52739;DHT22;52466;40.122;18.318;2022-07-19T17:10:30;31.60;46.00
52739;DHT22;52466;40.122;18.318;2022-07-19T17:13:38;31.50;46.70
52739;DHT22;52466;40.122;18.318;2022-07-19T17:16:46;31.30;47.20
52739;DHT22;52466;40.122;18.318;2022-07-19T17:19:54;31.30;47.70
52739;DHT22;52466;40.122;18.318;2022-07-19T17:23:02;31.20;47.90
52739;DHT22;52466;40.122;18.318;2022-07-19T17:26:10;31.10;48.10
52739;DHT22;52466;40.122;18.318;2022-07-19T17:29:18;31.00;48.20
52739;DHT22;52466;40.122;18.318;2022-07-19T17:32:25;31.00;48.40
52739;DHT22;52466;40.122;18.318;2022-07-19T17:35:33;30.90;48.60
52739;DHT22;52466;40.122;18.318;2022-07-19T17:38:41;30.90;48.70
52739;DHT22;52466;40.122;18.318;2022-07-19T17:41:48;30.80;48.80
52739;DHT22;52466;40.122;18.318;2022-07-19T17:44:56;30.70;48.90
52739;DHT22;52466;40.122;18.318;2022-07-19T17:48:04;30.60;49.00
52739;DHT22;52466;40.122;18.318;2022-07-19T17:51:12;30.60;48.90
52739;DHT22;52466;40.122;18.318;2022-07-19T17:54:19;30.50;48.80
52739;DHT22;52466;40.122;18.318;2022-07-19T17:57:27;30.50;48.80
52739;DHT22;52466;40.122;18.318;2022-07-19T18:00:35;30.50;48.80
52739;DHT22;52466;40.122;18.318;2022-07-19T18:03:43;30.40;48.90
52739;DHT22;52466;40.122;18.318;2022-07-19T18:06:50;30.20;49.00
52739;DHT22;52466;40.122;18.318;2022-07-19T18:09:59;30.10;49.30
52739;DHT22;52466;40.122;18.318;2022-07-19T18:13:07;30.00;49.70
52739;DHT22;52466;40.122;18.318;2022-07-19T18:16:16;29.90;50.10
52739;DHT22;52466;40.122;18.318;2022-07-19T18:19:24;29.80;50.50
52739;DHT22;52466;40.122;18.318;2022-07-19T18:22:31;29.60;51.00
52739;DHT22;52466;40.122;18.318;2022-07-19T18:25:40;29.50;51.40
52739;DHT22;52466;40.122;18.318;2022-07-19T18:28:48;29.40;51.70
52739;DHT22;52466;40.122;18.318;2022-07-19T18:31:55;29.20;52.20
52739;DHT22;52466;40.122;18.318;2022-07-19T18:35:03;29.10;52.60
52739;DHT22;52466;40.122;18.318;2022-07-19T18:38:11;29.00;53.10
52739;DHT22;52466;40.122;18.318;2022-07-19T18:41:19;28.90;53.60
52739;DHT22;52466;40.122;18.318;2022-07-19T18:44:26;28.90;53.90
52739;DHT22;52466;40.122;18.318;2022-07-19T18:47:34;28.80;54.30
52739;DHT22;52466;40.122;18.318;2022-07-19T18:50:42;28.80;54.70
52739;DHT22;52466;40.122;18.318;2022-07-19T18:53:50;28.70;55.20
52739;DHT22;52466;40.122;18.318;2022-07-19T18:56:57;28.70;55.80
52739;DHT22;52466;40.122;18.318;2022-07-19T19:00:06;28.70;56.20
52739;DHT22;52466;40.122;18.318;2022-07-19T19:03:14;28.70;56.60
52739;DHT22;52466;40.122;18.318;2022-07-19T19:06:22;28.70;57.10
52739;DHT22;52466;40.122;18.318;2022-07-19T19:09:29;28.60;57.70
52739;DHT22;52466;40.122;18.318;2022-07-19T19:12:37;28.60;58.20
52739;DHT22;52466;40.122;18.318;2022-07-19T19:15:45;28.60;58.80
52739;DHT22;52466;40.122;18.318;2022-07-19T19:18:54;28.50;59.30
52739;DHT22;52466;40.122;18.318;2022-07-19T19:22:02;28.50;59.70
52739;DHT22;52466;40.122;18.318;2022-07-19T19:25:10;28.50;60.00
52739;DHT22;52466;40.122;18.318;2022-07-19T19:28:18;28.40;60.40
52739;DHT22;52466;40.122;18.318;2022-07-19T19:31:26;28.40;60.70
52739;DHT22;52466;40.122;18.318;2022-07-19T19:34:34;28.30;60.80
52739;DHT22;52466;40.122;18.318;2022-07-19T19:37:42;28.40;60.80
52739;DHT22;52466;40.122;18.318;2022-07-19T19:40:49;28.40;60.80
52739;DHT22;52466;40.122;18.318;2022-07-19T19:43:57;28.40;61.00
52739;DHT22;52466;40.122;18.318;2022-07-19T19:47:05;28.30;61.10
52739;DHT22;52466;40.122;18.318;2022-07-19T19:50:13;28.20;61.20
52739;DHT22;52466;40.122;18.318;2022-07-19T19:53:22;28.20;61.40
52739;DHT22;52466;40.122;18.318;2022-07-19T19:56:30;28.10;61.70
52739;DHT22;52466;40.122;18.318;2022-07-19T19:59:37;28.10;61.70
52739;DHT22;52466;40.122;18.318;2022-07-19T20:02:45;28.10;61.90